Latest Weather Observations for Coober Pedy Airport

IDS60801

Issued at 1:05 pm CDT Thursday 27 November 2014 (issued every 30 minutes, with the page automatically refreshed every 10 minutes)

About weather observations | Map of weather stations | Latest weather observations for SA | Other Formats
Station Details ID: 016090 Name: COOBER PEDY AIRPORT Lat: -29.03 Lon: 134.72 Height: 225.0 m
Data from the previous 72 hours. | See also: Recent months at Coober Pedy Airport
Date/Time
CDT
Temp
°C
App
Temp
°C
Dew
Point
Rel
Hum
%
Delta-T
°C
Wind Press
QNH
hPa
Press
MSL
hPa
Rain
since 9 am
mm
Dir
 
Spd
km/h
Gust
km/h
Spd
kts
Gust
kts
27/01:00pm 31.7 26.2 -2.3 11 15.9 ENE 17 26 9 14 1018.4 1017.3 0.0
27/12:30pm 29.6 22.8 -1.7 13 14.6 E 24 43 13 23 1018.8 1017.7 0.0
27/12:00pm 29.7 22.7 -0.6 14 14.4 E 26 35 14 19 1018.8 1017.7 0.0
27/11:30am 29.5 22.1 -0.8 14 14.3 ENE 28 37 15 20 1019.0 1017.9 0.0
27/11:00am 29.0 21.7 -0.2 15 13.9 E 28 41 15 22 1019.2 1018.1 0.0
27/10:30am 28.3 20.3 1.7 18 13.0 E 33 43 18 23 1019.1 1018.0 0.0
27/10:00am 25.8 17.6 2.5 22 11.4 E 35 46 19 25 1019.1 1018.0 0.0
27/09:30am 24.6 16.8 2.7 24 10.7 E 33 41 18 22 1019.2 1018.1 0.0
27/09:00am 23.2 16.0 3.2 27 9.7 E 30 35 16 19 1019.2 1018.1 0.0
27/08:30am 22.5 15.8 3.6 29 9.2 E 28 35 15 19 1019.1 1018.0 0.0
27/08:00am 21.2 14.8 3.4 31 8.6 ESE 26 33 14 18 1019.1 1018.0 0.0
27/07:30am 20.3 14.2 2.6 31 8.3 ESE 24 30 13 16 1018.8 1017.7 0.0
27/07:00am 19.9 14.0 1.8 30 8.4 ESE 22 30 12 16 1018.5 1017.4 0.0
27/06:30am 20.1 14.5 1.5 29 8.6 ESE 20 30 11 16 1018.2 1017.1 0.0
27/06:00am 20.5 14.4 0.4 26 9.1 ESE 22 26 12 14 1017.9 1016.7 0.0
27/05:30am 21.1 15.0 0.3 25 9.4 ESE 22 28 12 15 1017.4 1016.2 0.0
27/05:00am 21.3 15.3 -1.3 22 10.0 ESE 20 30 11 16 1017.2 1016.1 0.0
27/04:30am 21.4 14.6 -1.8 21 10.1 SE 24 30 13 16 1017.0 1015.9 0.0
27/04:00am 20.8 15.7 -1.7 22 9.8 SE 15 17 8 9 1016.8 1015.7 0.0
27/03:30am 21.5 16.4 -1.7 21 10.1 SE 15 19 8 10 1016.9 1015.8 0.0
27/03:00am 22.2 16.6 -2.5 19 10.7 SE 17 20 9 11 1016.9 1015.8 0.0
27/02:30am 22.7 16.7 -2.8 18 11.0 SSE 19 22 10 12 1016.9 1015.8 0.0
27/02:00am 22.9 16.8 -2.6 18 11.1 SSE 20 24 11 13 1017.1 1016.0 0.0
27/01:30am 23.4 17.4 -3.0 17 11.4 SE 19 24 10 13 1017.4 1016.2 0.0
27/01:00am 24.0 17.8 -3.3 16 11.8 SSE 20 26 11 14 1017.7 1016.5 0.0
27/12:30am 24.4 18.2 -3.0 16 12.0 SSE 20 24 11 13 1018.0 1016.9 0.0
27/12:00am 24.9 18.8 -2.6 16 12.2 SSE 20 24 11 13 1018.2 1017.1 0.0
 
Date/Time
CDT
Temp
°C
App
Temp
°C
Dew
Point
Rel
Hum
%
Delta-T
°C
Wind Press
QNH
hPa
Press
MSL
hPa
Rain
since 9 am
mm
Dir
 
Spd
km/h
Gust
km/h
Spd
kts
Gust
kts
26/11:30pm 25.6 19.1 -2.1 16 12.4 SSE 22 28 12 15 1018.2 1017.1 0.0
26/11:00pm 26.3 19.4 -2.4 15 12.9 SSE 24 30 13 16 1018.1 1017.0 0.0
26/10:30pm 26.2 21.0 -2.4 15 12.8 SSE 15 17 8 9 1017.9 1016.7 0.0
26/10:00pm 27.5 21.3 -3.3 13 13.8 S 20 24 11 13 1017.5 1016.3 0.0
26/09:30pm 27.5 22.5 -4.4 12 13.9 SSE 13 15 7 8 1017.4 1016.2 0.0
26/09:00pm 28.3 23.2 -4.9 11 14.5 SSE 13 15 7 8 1016.9 1015.8 0.0
26/08:30pm 29.6 23.7 -5.2 10 15.3 SSE 17 20 9 11 1016.7 1015.6 0.0
26/08:00pm 30.2 24.3 -6.1 9 15.8 SSE 17 24 9 13 1016.5 1015.4 0.0
26/07:30pm 30.6 24.1 -5.8 9 15.9 SSE 20 28 11 15 1016.2 1015.1 0.0
26/07:00pm 31.0 24.5 -5.5 9 16.1 S 20 30 11 16 1016.0 1014.9 0.0
26/06:30pm 31.5 25.1 -5.2 9 16.4 S 20 32 11 17 1015.8 1014.7 0.0
26/06:00pm 31.3 24.9 -5.3 9 16.3 S 20 33 11 18 1015.9 1014.8 0.0
26/05:30pm 31.8 25.6 -4.9 9 16.5 S 19 28 10 15 1016.0 1014.9 0.0
26/05:00pm 31.9 25.7 -4.9 9 16.6 S 19 24 10 13 1016.3 1015.2 0.0
26/04:30pm 31.2 26.5 -5.4 9 16.2 SSW 11 24 6 13 1016.4 1015.3 0.0
26/04:00pm 30.8 24.3 -5.7 9 16.1 SSW 20 32 11 17 1016.7 1015.6 0.0
26/03:30pm 30.5 26.1 -5.9 9 15.9 SSW 9 20 5 11 1016.9 1015.8 0.0
26/03:00pm 30.5 25.5 -4.5 10 15.7 ESE 13 24 7 13 1017.4 1016.2 0.0
26/02:30pm 29.8 25.1 -5.1 10 15.4 S 11 19 6 10 1018.0 1016.9 0.0
26/02:00pm 29.9 25.2 -5.0 10 15.4 ESE 11 22 6 12 1018.4 1017.3 0.0
26/01:30pm 29.4 25.2 -4.1 11 15.0 NE 9 13 5 7 1018.6 1017.5 0.0
26/01:00pm 28.8 25.0 -3.4 12 14.5 ENE 7 20 4 11 1019.1 1018.0 0.0
26/12:30pm 27.9 23.8 -3.0 13 13.9 ESE 9 15 5 8 1019.5 1018.4 0.0
26/12:00pm 28.3 24.2 -2.7 13 14.0 NNE 9 17 5 9 1019.9 1018.8 0.0
26/11:30am 27.3 22.7 -0.7 16 13.0 ESE 13 20 7 11 1020.2 1019.1 0.0
26/11:00am 26.5 21.3 0.3 18 12.4 E 17 41 9 22 1020.2 1019.1 0.0
26/10:30am 25.5 19.6 1.6 21 11.5 ESE 22 28 12 15 1020.3 1019.2 0.0
26/10:00am 24.2 18.6 3.5 26 10.2 SE 22 30 12 16 1020.4 1019.3 0.0
26/09:30am 22.6 16.7 3.7 29 9.2 ESE 24 30 13 16 1020.4 1019.3 0.0
26/09:00am 21.3 14.7 4.0 32 8.4 SE 28 35 15 19 1020.2 1019.1 0.0
26/08:30am 20.4 14.4 3.6 33 8.1 SE 24 32 13 17 1020.0 1018.9 0.0
26/08:00am 18.8 13.2 3.4 36 7.3 SE 22 28 12 15 1020.0 1018.9 0.0
26/07:30am 17.8 13.0 4.7 42 6.3 SSE 19 24 10 13 1019.8 1018.7 0.0
26/07:00am 16.7 11.7 4.4 44 5.9 SSE 20 24 11 13 1019.5 1018.4 0.0
26/06:30am 16.1 11.1 3.5 43 5.8 SSE 19 22 10 12 1019.4 1018.3 0.0
26/06:00am 16.1 10.9 2.2 39 6.3 SSE 19 20 10 11 1019.0 1017.9 0.0
26/05:30am 16.9 11.4 1.8 36 6.8 SSE 20 24 11 13 1018.8 1017.7 0.0
26/05:00am 17.4 11.3 0.1 31 7.6 S 22 26 12 14 1018.6 1017.5 0.0
26/04:30am 17.9 12.4 -1.9 26 8.3 SE 17 19 9 10 1018.6 1017.5 0.0
26/04:00am 17.9 12.8 -1.9 26 8.4 SE 15 17 8 9 1018.4 1017.3 0.0
26/03:30am 18.0 13.2 -2.3 25 8.5 SE 13 15 7 8 1018.4 1017.3 0.0
26/03:00am 18.9 13.8 -2.1 24 8.9 SE 15 17 8 9 1018.1 1017.0 0.0
26/02:30am 19.7 14.5 -2.6 22 9.4 SE 15 20 8 11 1018.1 1017.0 0.0
26/02:00am 20.1 14.1 -2.9 21 9.7 SSE 19 22 10 12 1018.2 1017.1 0.0
26/01:30am 20.4 14.4 -3.3 20 9.9 SSE 19 22 10 12 1018.5 1017.4 0.0
26/01:00am 20.6 14.5 -3.8 19 10.2 SSE 19 20 10 11 1019.0 1017.9 0.0
26/12:30am 21.2 15.1 -4.0 18 10.5 SSE 19 22 10 12 1019.3 1018.2 0.0
26/12:00am 21.9 15.8 -4.2 17 10.9 SSE 19 22 10 12 1019.5 1018.4 0.0
 
Date/Time
CDT
Temp
°C
App
Temp
°C
Dew
Point
Rel
Hum
%
Delta-T
°C
Wind Press
QNH
hPa
Press
MSL
hPa
Rain
since 9 am
mm
Dir
 
Spd
km/h
Gust
km/h
Spd
kts
Gust
kts
25/11:30pm 22.5 16.2 -3.7 17 11.1 SSE 20 24 11 13 1019.4 1018.3 0.0
25/11:00pm 23.1 17.0 -2.5 18 11.2 S 20 24 11 13 1019.3 1018.2 0.0
25/10:30pm 23.6 17.6 -2.8 17 11.5 S 19 22 10 12 1019.0 1017.9 0.0
25/10:00pm 23.8 18.4 -4.4 15 12.0 S 15 17 8 9 1019.1 1018.0 0.0
25/09:30pm 25.1 19.3 -4.2 14 12.6 S 17 20 9 11 1018.5 1017.4 0.0
25/09:00pm 26.0 19.8 -4.5 13 13.1 S 19 24 10 13 1018.4 1017.3 0.0
25/08:30pm 27.0 20.8 -4.8 12 13.7 SSE 19 24 10 13 1018.1 1017.0 0.0
25/08:00pm 27.7 21.3 -5.4 11 14.3 SSE 20 24 11 13 1018.1 1017.0 0.0
25/07:30pm 28.2 22.2 -6.3 10 14.7 SSE 17 24 9 13 1017.8 1016.6 0.0
25/07:00pm 28.5 22.0 -6.0 10 14.8 S 20 30 11 16 1017.6 1016.4 0.0
25/06:30pm 28.8 22.2 -7.2 9 15.1 SSE 20 30 11 16 1017.4 1016.2 0.0
25/06:00pm 29.4 22.8 -6.7 9 15.4 SSE 20 30 11 16 1017.4 1016.2 0.0
25/05:30pm 28.5 22.0 -7.4 9 15.0 S 19 30 10 16 1017.6 1016.4 0.0
25/05:00pm 29.1 22.6 -5.6 10 15.1 SE 20 28 11 15 1017.7 1016.5 0.0
25/04:30pm 28.0 20.9 -7.8 9 14.8 S 22 32 12 17 1018.1 1017.0 0.0
25/04:00pm 28.6 21.3 -6.0 10 14.9 SSE 24 30 13 16 1018.4 1017.3 0.0
25/03:30pm 28.1 22.0 -3.9 12 14.2 SE 19 32 10 17 1018.9 1017.8 0.0
25/03:00pm 27.5 21.3 -3.3 13 13.7 SE 20 35 11 19 1019.3 1018.2 0.0
25/02:30pm 26.7 20.7 -3.0 14 13.2 SSE 19 28 10 15 1019.8 1018.7 0.0
25/02:00pm 26.3 20.2 -2.4 15 12.9 SSE 20 30 11 16 1020.1 1019.0 0.0
25/01:30pm 25.3 20.0 -0.7 18 11.9 SE 17 32 9 17 1020.5 1019.4 0.0
25/01:00pm 24.5 18.8 0.8 21 11.1 S 20 30 11 16 1020.8 1019.7 0.0
25/12:30pm 24.5 19.0 2.0 23 10.8 SE 20 32 11 17 1021.2 1020.1 0.0
25/12:00pm 22.7 16.9 2.2 26 9.7 S 22 28 12 15 1021.3 1020.2 0.0
25/11:30am 21.8 16.5 3.0 29 9.0 SE 20 32 11 17 1021.6 1020.5 0.0
25/11:00am 20.8 15.2 3.5 32 8.3 SE 22 32 12 17 1021.7 1020.6 0.0
25/10:30am 19.6 13.4 4.5 37 7.3 SE 26 33 14 18 1022.2 1021.1 0.0
25/10:00am 18.7 12.2 4.8 40 6.8 SSE 28 43 15 23 1022.2 1021.1 0.0
25/09:30am 18.3 11.9 5.2 42 6.4 SE 28 33 15 18 1022.2 1021.1 0.0
25/09:00am 17.0 10.6 5.3 46 5.7 SE 28 39 15 21 1022.1 1021.0 0.0
25/08:30am 16.9 10.2 5.5 47 5.5 SE 30 39 16 21 1021.9 1020.9 0.0
25/08:00am 16.0 9.2 5.0 48 5.3 SSE 30 39 16 21 1021.5 1020.4 0.0
25/07:30am 15.2 8.7 4.6 49 5.0 SSE 28 35 15 19 1021.1 1020.0 0.0
25/07:00am 14.6 8.8 4.3 50 4.8 S 24 30 13 16 1020.8 1019.7 0.0
25/06:30am 14.4 8.2 4.1 50 4.8 S 26 33 14 18 1020.4 1019.3 0.0
25/06:00am 14.6 7.6 4.0 49 4.9 S 30 35 16 19 1020.0 1018.9 0.0
25/05:30am 15.0 7.9 3.8 47 5.2 S 30 37 16 20 1019.8 1018.7 0.0
25/05:00am 15.1 8.4 3.6 46 5.3 S 28 35 15 19 1019.6 1018.5 0.0
25/04:30am 15.4 7.7 3.5 45 5.5 S 33 39 18 21 1019.3 1018.2 0.0
25/04:00am 15.7 8.2 3.2 43 5.8 S 32 39 17 21 1019.2 1018.1 0.0
25/03:30am 16.1 8.2 2.5 40 6.2 S 33 44 18 24 1019.0 1017.9 0.0
25/03:00am 16.5 7.8 2.2 38 6.5 S 37 46 20 25 1019.0 1017.9 0.0
25/02:30am 17.0 8.3 2.2 37 6.7 S 37 44 20 24 1019.0 1017.9 0.0
25/02:00am 17.7 9.1 2.5 36 7.0 S 37 44 20 24 1019.2 1018.1 0.0
25/01:30am 18.6 10.8 2.0 33 7.6 S 32 41 17 22 1019.2 1018.1 0.0
25/01:00am 19.4 11.1 1.9 31 8.1 S 35 43 19 23 1019.1 1018.0 0.0
25/12:30am 20.1 11.6 2.9 32 8.1 S 37 44 20 24 1019.1 1018.0 0.0
25/12:00am 21.0 12.6 3.7 32 8.4 S 37 46 20 25 1018.7 1017.6 0.0
 
Date/Time
CDT
Temp
°C
App
Temp
°C
Dew
Point
Rel
Hum
%
Delta-T
°C
Wind Press
QNH
hPa
Press
MSL
hPa
Rain
since 9 am
mm
Dir
 
Spd
km/h
Gust
km/h
Spd
kts
Gust
kts
24/11:30pm 21.8 12.5 3.0 29 9.0 S 41 46 22 25 1018.3 1017.2 0.0
24/11:00pm 22.6 14.2 1.6 25 9.9 S 35 48 19 26 1018.3 1017.2 0.0
24/10:30pm 23.5 15.6 2.4 25 10.1 S 33 44 18 24 1017.8 1016.6 0.0
24/10:00pm 24.3 16.1 2.5 24 10.6 S 35 46 19 25 1017.4 1016.2 0.0
24/09:30pm 25.2 16.4 3.8 25 10.7 S 39 44 21 24 1016.8 1015.7 0.0
24/09:00pm 26.2 17.7 3.4 23 11.4 S 37 48 20 26 1016.2 1015.1 0.0
24/08:30pm 27.4 20.0 5.1 24 11.6 S 33 39 18 21 1015.5 1014.4 0.0
24/08:00pm 28.2 20.8 5.1 23 12.0 S 33 43 18 23 1015.2 1014.1 0.0
24/07:30pm 29.1 21.4 5.2 22 12.5 S 35 43 19 23 1014.7 1013.6 0.0
24/07:00pm 29.7 22.2 4.4 20 13.1 S 33 43 18 23 1014.3 1013.2 0.0
24/06:30pm 30.4 23.5 6.3 22 13.0 S 32 44 17 24 1014.0 1012.8 0.0
24/06:00pm 31.0 23.6 6.8 22 13.2 S 35 48 19 26 1014.0 1012.8 0.0
24/05:30pm 30.6 23.7 7.1 23 12.8 S 33 46 18 25 1013.9 1012.7 0.0
24/05:00pm 30.6 22.8 6.5 22 13.0 S 37 52 20 28 1013.9 1012.7 0.0
24/04:30pm 30.5 22.6 6.4 22 13.0 SSW 37 48 20 26 1013.7 1012.5 0.0
24/04:00pm 30.7 22.7 5.9 21 13.3 SSW 37 46 20 25 1013.9 1012.7 0.0
24/03:30pm 30.2 22.3 6.1 22 12.9 S 37 52 20 28 1014.0 1012.8 0.0
24/03:02pm 30.2 22.2 7.4 24 12.5 SSW 39 57 21 31 1014.1 1013.0 0.0
24/03:00pm 30.1 21.7 7.3 24 12.5 SSW 41 56 22 30 1014.1 1013.0 0.0
24/02:30pm 30.4 22.4 7.6 24 12.5 S 39 52 21 28 1014.3 1013.2 0.0
24/02:00pm 29.3 20.9 7.2 25 12.0 S 41 54 22 29 1014.7 1013.6 0.0
24/01:35pm 29.3 20.5 7.2 25 12.0 S 43 61 23 33 1014.7 1013.6 0.0
24/01:30pm 29.0 19.6 7.0 25 11.9 S 46 61 25 33 1014.7 1013.6 0.0
24/01:24pm 29.2 20.5 7.7 26 11.8 S 43 61 23 33 1014.6 1013.5 0.0

Other Formats:

Comma delimited format used in spreadsheet applications
http://www.bom.gov.au/fwo/IDS60801/IDS60801.95458.axf

JavaScript Object Notation format (JSON) in row-major order
http://www.bom.gov.au/fwo/IDS60801/IDS60801.95458.json